Terminal Aerodrome Forecast
Issued by NWS Wakefield, VA

Current Version | Previous Version | Text Only | Print | Product List | Glossary On
Versions: 1 2 3 4 5 6 7 8 9 10 11 12 13 14 15 16 17 18 19 20 21 22 23 24 25 26
308
FTUS41 KAKQ 172323
TAFSBY
TAF
KSBY 172323Z 1800/1824 16007KT P6SM OVC100
     FM180900 18007KT P6SM BKN025
     FM181100 19008KT P6SM BKN015
     FM181500 20010KT P6SM BKN025
     FM181600 20011KT P6SM BKN035=

USA.gov is the U.S. government's official web portal to all federal, state and local government web resources and services.